KOMA

Eppley Airfield

Airport
ICAO code
KOMA
IATA Code
OMA
Summary
ICAO Region
NAM
ICAO Territory
Location

Omaha, Nebraska

Serving
Omaha
Elevation
984 ft
Coordinates
41° 18' 11" N , 95° 53' 45" W
KCC
Airport LOS
Parallel Runway Operation
Metar
KOMA 181652Z 35019G26KT 10SM SCT023 BKN070 OVC100 08/04 A3017 RMK AO2 PK WND 35026/1652 RAE1556 SLP217 P0000 T00830039

Eppley Airfield, also known as Omaha Airport, is a public use airport located 3 nm northeast of the central business district of Omaha, in Douglas County, Nebraska, USA.

Runways

Designator Length Width Surface Rops
18/36 2485 46 PEM Yes/Yes
14L/32R 2591 46 CON Yes/Yes
14R/32L 2896 46 PEM Yes/Yes

Airport map

Aerial View

SKYbrary Partners:

Safety knowledge contributed by: